Wheatland, ND (58079)

11:47 PM CDT on September 26, 2016 (GMT -0500)
Home of the Absaraka Crows | | Change Station

Elev 1066 ft 46.98 °N, 97.39 °W | Updated 24 seconds ago

Clear
Clear
49.3 °F
Feels Like 48 °F
N
4.5
Wind Variable Wind from West
Gusts 5.4 mph

Today
High -- | Low -- °F
--% Chance of Precip.
Yesterday
High -- | Low -- °F
Precip. -- in
Pressure 29.95 in
Visibility 10.0 miles
Clouds Clear
Windchill 48 °F
Dew Point 39 °F
Humidity 68%
Rainfall 0.09 in
Snow Depth Not available.
7:22 AM 7:18 PM
Waning Crescent, 14% visible
METAR KFAR 270353Z AUTO 29007KT 10SM CLR 09/01 A2994 RMK AO2 SLP141 T00890006 TSNO
Pressure 29.95 in
Visibility 10.0 miles
Clouds Clear
Windchill 48 °F
Dew Point 39 °F
Humidity 68%
Rainfall 0.09 in
Snow Depth Not available.
7:22 AM 7:18 PM
Waning Crescent, 14% visible
METAR KFAR 270353Z AUTO 29007KT 10SM CLR 09/01 A2994 RMK AO2 SLP141 T00890006 TSNO

10-Day Weather Forecast

Almanac

Astronomy

Sep. 26, 2016 Rise Set
Actual Time
Civil Twilight
Nautical Twilight
Astronomical Twilight
Moon
Length of Visible Light
Length of Day
Tomorrow will be .
, % of the Moon is Illuminated

Today's Extremes

State Highs State Lows

Community

WunderPhotos

Upload Photos

1,942,035 photos uploaded!

WunderBlog® & News

Nearby

Air Quality

  Air Quality AQ Index Pollutant
Not available.

Snow Depth

Station Depth Elevation

Earthquake Activity

City Distance Mag. Time & Date
Minimum magnitude displayed is 2.5.

Coastal Water Temperatures

Place Temperature

Stations

Nearby Weather Stations

Station Location Temp. Windchill Dew Point Humidity Wind Precip. Elev Updated Type
                   

Watches & Warnings

There are currently no watches in effect.